createdAt,value
2023-04-30T01:00:44.950Z,13.10
2023-04-30T01:03:15.216Z,13.43
2023-04-30T01:08:34.613Z,13.17
2023-04-30T01:11:08.486Z,12.23
2023-04-30T01:13:39.999Z,11.43
2023-04-30T01:16:12.545Z,12.50
2023-04-30T01:18:42.808Z,10.03
2023-04-30T01:21:10.110Z,16.00
2023-04-30T01:27:16.418Z,10.63
2023-04-30T01:29:45.142Z,11.90
2023-04-30T01:32:13.295Z,12.83
2023-04-30T01:34:46.168Z,15.67
2023-04-30T01:37:17.239Z,13.77
2023-04-30T01:39:51.915Z,12.57
2023-04-30T01:42:31.188Z,13.73
2023-04-30T01:45:13.350Z,15.10
2023-04-30T01:47:46.204Z,14.90
2023-04-30T01:50:18.730Z,13.37
2023-04-30T01:56:30.643Z,13.07
2023-04-30T01:58:58.857Z,10.83
2023-04-30T02:01:26.811Z,13.57
2023-04-30T02:03:55.640Z,12.27
2023-04-30T02:06:23.245Z,16.20
2023-04-30T02:08:50.470Z,15.57
2023-04-30T02:11:17.774Z,18.90
2023-04-30T02:13:45.122Z,11.47
2023-04-30T02:16:12.572Z,11.07
2023-04-30T02:18:39.855Z,11.60
2023-04-30T02:21:08.437Z,12.20
2023-04-30T02:23:57.317Z,10.33
2023-04-30T02:26:43.156Z,13.13
2023-04-30T02:29:10.578Z,14.03
2023-04-30T02:31:37.884Z,12.57
2023-04-30T02:34:05.146Z,13.50
2023-04-30T02:36:33.761Z,13.10
2023-04-30T02:39:04.147Z,13.90
2023-04-30T03:44:33.124Z,11.23
2023-04-30T03:47:00.706Z,12.40
2023-04-30T03:49:28.087Z,12.13
2023-04-30T03:51:55.627Z,12.40
2023-04-30T03:54:22.954Z,12.57
2023-04-30T03:56:50.312Z,12.93
2023-04-30T03:59:17.826Z,10.37
2023-04-30T04:02:07.145Z,13.37
2023-04-30T04:07:29.642Z,12.10
2023-04-30T04:09:57.002Z,13.63
2023-04-30T04:12:24.698Z,13.47
2023-04-30T04:14:51.953Z,10.90
2023-04-30T04:17:19.510Z,14.50
2023-04-30T04:19:48.357Z,12.63
2023-04-30T04:53:47.053Z,11.40
2023-04-30T04:56:14.873Z,11.00
2023-04-30T04:58:42.616Z,11.20
2023-04-30T05:01:09.957Z,9.00
2023-04-30T05:03:37.543Z,12.90
2023-04-30T05:23:28.011Z,8.30
2023-04-30T05:25:55.556Z,10.70
2023-04-30T05:28:22.803Z,9.80
2023-04-30T05:30:50.198Z,9.30
2023-04-30T05:33:22.674Z,11.57
2023-04-30T05:35:49.871Z,11.17
2023-04-30T05:38:17.096Z,10.50
2023-04-30T05:41:06.665Z,7.93
2023-04-30T05:43:47.519Z,7.43
2023-04-30T08:17:34.314Z,6.27
2023-04-30T08:20:01.574Z,6.13
2023-04-30T08:22:28.807Z,5.70
2023-04-30T08:24:56.068Z,5.50
2023-04-30T08:27:23.579Z,4.70
2023-04-30T08:29:50.844Z,5.30
2023-04-30T08:32:19.975Z,5.03
2023-04-30T08:34:49.056Z,6.97
2023-04-30T08:37:16.640Z,5.20
2023-04-30T08:39:44.054Z,6.13
2023-04-30T08:42:14.537Z,5.30
2023-04-30T08:44:41.930Z,4.53
2023-04-30T08:47:11.027Z,8.67
2023-04-30T08:49:41.306Z,4.67
2023-04-30T08:52:09.982Z,5.30
2023-04-30T08:54:37.433Z,6.63
2023-04-30T08:57:04.876Z,4.33
2023-04-30T08:59:36.168Z,3.27
2023-04-30T09:02:09.654Z,5.00
2023-04-30T09:04:50.492Z,4.23
2023-04-30T09:07:19.512Z,3.67
2023-04-30T09:09:46.790Z,4.33
2023-04-30T09:12:16.885Z,3.80
2023-04-30T11:19:40.151Z,1.53
2023-04-30T11:22:18.481Z,4.13
2023-04-30T11:31:10.013Z,3.00
2023-04-30T11:33:37.395Z,4.00
2023-04-30T11:36:04.970Z,3.40
2023-04-30T11:44:51.328Z,4.13
2023-04-30T11:50:48.682Z,4.40
2023-04-30T11:53:15.877Z,4.47
2023-04-30T11:55:43.184Z,5.30
2023-04-30T11:58:10.833Z,5.10
2023-04-30T12:00:39.517Z,4.57
2023-04-30T12:03:07.648Z,4.43
2023-04-30T12:08:44.813Z,3.80
2023-04-30T12:11:21.619Z,7.23
2023-04-30T12:13:53.036Z,5.13
2023-04-30T12:16:21.768Z,3.87
2023-04-30T12:18:50.182Z,2.80
2023-04-30T12:21:19.631Z,4.27
2023-04-30T12:23:46.901Z,3.90
2023-04-30T12:26:14.187Z,5.00
2023-04-30T12:28:59.834Z,3.67
2023-04-30T12:31:56.502Z,3.70
2023-04-30T12:34:38.806Z,3.23
2023-04-30T12:37:06.272Z,3.33
2023-04-30T12:39:34.480Z,2.37
2023-04-30T12:42:01.894Z,2.80
2023-04-30T14:09:22.292Z,3.73
2023-04-30T14:11:49.764Z,2.30
2023-04-30T14:14:29.411Z,2.30
2023-04-30T14:16:57.057Z,2.83
2023-04-30T14:19:24.707Z,2.43
2023-04-30T14:21:51.953Z,2.10
2023-04-30T15:04:20.342Z,1.77
2023-04-30T15:06:47.998Z,3.00
2023-04-30T15:09:15.318Z,2.73
2023-04-30T15:11:42.581Z,1.60
2023-04-30T15:14:33.434Z,1.83
2023-04-30T15:19:55.986Z,1.50
2023-04-30T15:22:23.545Z,2.60
2023-04-30T15:24:50.802Z,1.97
2023-04-30T15:27:18.118Z,2.60
2023-04-30T15:29:45.429Z,1.60
2023-04-30T15:32:12.716Z,1.83
2023-04-30T16:05:57.089Z,1.60
2023-04-30T16:08:24.404Z,1.70
2023-04-30T16:10:51.715Z,2.20
2023-04-30T16:13:19.000Z,2.03
2023-04-30T16:15:46.235Z,1.77
2023-04-30T16:18:13.518Z,2.87
2023-04-30T16:20:41.686Z,2.00
2023-04-30T16:23:10.345Z,1.63
2023-04-30T16:25:37.649Z,1.67
2023-04-30T16:28:04.995Z,2.00
2023-04-30T16:30:33.276Z,1.80
2023-04-30T16:35:37.417Z,2.20
2023-04-30T16:38:04.698Z,3.10
2023-04-30T16:40:34.355Z,2.23
2023-04-30T16:46:25.078Z,2.30
2023-04-30T16:49:01.835Z,2.13
2023-04-30T16:51:29.152Z,2.23
2023-04-30T16:53:56.376Z,1.90
2023-04-30T16:56:26.250Z,2.20
2023-04-30T16:58:53.466Z,1.77
2023-04-30T17:01:20.771Z,3.50
2023-04-30T17:03:48.243Z,1.90
2023-04-30T17:06:15.619Z,1.93
2023-04-30T17:08:42.928Z,2.27
2023-04-30T17:11:10.533Z,1.90
2023-04-30T17:13:39.245Z,4.10
2023-04-30T17:16:06.884Z,3.13
2023-04-30T17:18:34.230Z,2.10
2023-04-30T17:21:01.530Z,4.47
2023-04-30T17:23:28.779Z,2.40
2023-04-30T17:25:56.000Z,4.13
2023-04-30T17:28:23.246Z,2.83
2023-04-30T17:30:51.892Z,2.60
2023-04-30T17:33:19.191Z,2.53
2023-04-30T17:35:46.440Z,3.10
2023-04-30T17:38:13.725Z,1.80
2023-04-30T17:40:40.987Z,1.90
2023-04-30T17:43:08.258Z,2.23
2023-04-30T17:45:37.687Z,35.40
2023-04-30T17:48:06.849Z,3.30
2023-04-30T17:50:34.276Z,3.50
2023-04-30T17:53:01.598Z,22.93
2023-04-30T17:55:28.902Z,3.13
2023-04-30T17:57:56.249Z,3.97
2023-04-30T18:00:23.570Z,3.77
2023-04-30T18:03:07.493Z,2.90
2023-04-30T21:26:45.658Z,4.00
2023-04-30T21:29:12.867Z,4.43
2023-04-30T21:31:40.113Z,2.83
2023-04-30T21:34:07.392Z,3.07
2023-04-30T21:36:34.630Z,5.37
2023-04-30T21:39:01.837Z,4.23
2023-04-30T21:41:29.047Z,4.40
2023-04-30T21:43:57.655Z,4.28
2023-04-30T21:46:25.210Z,4.47
2023-04-30T21:48:53.071Z,5.10
2023-04-30T21:51:20.352Z,3.60
2023-04-30T21:53:47.700Z,4.07
2023-04-30T21:56:15.130Z,4.27
2023-04-30T21:58:42.510Z,3.23
2023-04-30T22:01:11.180Z,3.70
2023-04-30T22:03:38.672Z,6.03
2023-04-30T22:06:06.229Z,3.13
2023-04-30T22:08:33.860Z,3.93
2023-04-30T22:11:01.312Z,4.10
2023-04-30T22:13:29.400Z,3.77
2023-04-30T22:15:56.777Z,4.43
2023-04-30T22:18:25.404Z,6.13
2023-04-30T22:20:53.147Z,3.40
2023-04-30T22:23:20.480Z,3.20
2023-04-30T22:25:47.704Z,3.10
2023-04-30T22:28:15.176Z,3.20
2023-04-30T22:30:42.384Z,5.27
2023-04-30T22:33:09.779Z,5.10
2023-04-30T22:35:38.631Z,4.50
2023-04-30T22:38:05.879Z,5.30
2023-04-30T22:40:33.473Z,3.40
2023-04-30T22:43:00.989Z,3.13
2023-04-30T22:45:28.332Z,3.27
2023-04-30T22:47:55.631Z,3.00
2023-04-30T22:50:23.256Z,2.93
